createdAt,value
2022-07-25T00:00:28.251Z,1003.67
2022-07-25T00:01:30.089Z,1003.64
2022-07-25T00:02:28.221Z,1003.64
2022-07-25T00:03:28.533Z,1003.62
2022-07-25T00:04:28.230Z,1003.60
2022-07-25T00:05:28.226Z,1003.64
2022-07-25T00:06:28.181Z,1003.59
2022-07-25T00:07:28.173Z,1003.55
2022-07-25T00:08:28.172Z,1003.57
2022-07-25T00:09:28.171Z,1003.57
2022-07-25T00:10:28.139Z,1003.54
2022-07-25T00:11:28.122Z,1003.51
2022-07-25T00:12:28.114Z,1003.49
2022-07-25T00:13:28.115Z,1003.50
2022-07-25T00:14:28.096Z,1003.51
2022-07-25T00:15:28.080Z,1003.47
2022-07-25T00:16:28.156Z,1003.48
2022-07-25T00:17:28.150Z,1003.42
2022-07-25T00:18:28.086Z,1003.42
2022-07-25T00:19:28.044Z,1003.39
2022-07-25T00:20:28.022Z,1003.33
2022-07-25T00:21:28.012Z,1003.34
2022-07-25T00:22:27.998Z,1003.33
2022-07-25T00:23:28.008Z,1003.31
2022-07-25T00:24:28.076Z,1003.30
2022-07-25T00:25:27.976Z,1003.27
2022-07-25T00:26:27.982Z,1003.27
2022-07-25T00:27:27.954Z,1003.24
2022-07-25T00:28:27.996Z,1003.21
2022-07-25T00:29:27.966Z,1003.21
2022-07-25T00:30:27.913Z,1003.18
2022-07-25T00:31:28.079Z,1003.21
2022-07-25T00:32:27.901Z,1003.16
2022-07-25T00:33:27.979Z,1003.13
2022-07-25T00:34:27.918Z,1003.16
2022-07-25T00:35:27.867Z,1003.15
2022-07-25T00:36:27.860Z,1003.11
2022-07-25T00:37:27.835Z,1003.14
2022-07-25T00:38:27.840Z,1003.08
2022-07-25T00:39:27.835Z,1003.08
2022-07-25T00:40:27.803Z,1003.07
2022-07-25T00:41:27.932Z,1003.07
2022-07-25T00:42:27.809Z,1003.08
2022-07-25T00:43:27.782Z,1003.07
2022-07-25T00:44:27.773Z,1003.07
2022-07-25T00:45:27.749Z,1003.10
2022-07-25T00:46:27.827Z,1003.11
2022-07-25T00:47:27.752Z,1003.11
2022-07-25T00:48:27.924Z,1003.14
2022-07-25T00:49:27.715Z,1003.15
2022-07-25T00:50:27.708Z,1003.11
2022-07-25T00:51:27.724Z,1003.11
2022-07-25T00:52:27.731Z,1003.08
2022-07-25T00:53:27.692Z,1003.09
2022-07-25T00:54:27.675Z,1003.03
2022-07-25T00:55:27.656Z,1003.06
2022-07-25T00:56:27.641Z,1003.04
2022-07-25T00:57:27.722Z,1003.03
2022-07-25T00:58:27.615Z,1003.07
2022-07-25T00:59:27.638Z,1003.07
2022-07-25T01:00:27.587Z,1003.06
2022-07-25T01:01:27.639Z,1003.06
2022-07-25T01:02:27.709Z,1003.06
2022-07-25T01:03:27.575Z,1003.05
2022-07-25T01:04:27.570Z,1003.07
2022-07-25T01:05:27.548Z,1003.06
2022-07-25T01:06:27.544Z,1003.03
2022-07-25T01:07:27.590Z,1003.08
2022-07-25T01:08:27.530Z,1003.04
2022-07-25T01:09:27.516Z,1003.03
2022-07-25T01:10:27.529Z,1003.02
2022-07-25T01:11:27.492Z,1003.03
2022-07-25T01:12:27.482Z,1003.04
2022-07-25T01:13:27.520Z,1003.02
2022-07-25T01:14:27.442Z,1003.00
2022-07-25T01:15:27.472Z,1003.03
2022-07-25T01:16:27.467Z,1003.03
2022-07-25T01:17:27.409Z,1003.04
2022-07-25T01:18:27.416Z,1003.00
2022-07-25T01:19:27.389Z,1003.07
2022-07-25T01:20:27.412Z,1003.04
2022-07-25T01:21:27.426Z,1003.10
2022-07-25T01:22:27.363Z,1003.09
2022-07-25T01:23:27.355Z,1003.09
2022-07-25T01:24:27.343Z,1003.13
2022-07-25T01:25:27.414Z,1003.11
2022-07-25T01:26:27.351Z,1003.08
2022-07-25T01:27:27.298Z,1003.08
2022-07-25T01:28:27.303Z,1003.10
2022-07-25T01:29:27.272Z,1003.06
2022-07-25T01:30:27.308Z,1003.06
2022-07-25T01:31:27.405Z,1002.99
2022-07-25T01:32:27.237Z,1003.00
2022-07-25T01:33:27.237Z,1003.01
2022-07-25T01:34:27.227Z,1002.98
2022-07-25T01:35:27.243Z,1003.00
2022-07-25T01:36:27.234Z,1002.97
2022-07-25T01:37:27.206Z,1002.96
2022-07-25T01:38:27.170Z,1002.96
2022-07-25T01:39:27.182Z,1003.01
2022-07-25T01:40:27.197Z,1002.99
2022-07-25T01:41:27.140Z,1002.94
2022-07-25T01:42:27.163Z,1002.91
2022-07-25T01:43:27.154Z,1002.92
2022-07-25T01:44:27.117Z,1002.88
2022-07-25T01:45:27.124Z,1002.87
2022-07-25T01:46:27.245Z,1002.83
2022-07-25T01:47:27.084Z,1002.84
2022-07-25T01:48:27.204Z,1002.82
2022-07-25T01:49:27.069Z,1002.77
2022-07-25T01:50:27.083Z,1002.75
2022-07-25T01:51:27.040Z,1002.74
2022-07-25T01:52:27.032Z,1002.74
2022-07-25T01:53:27.035Z,1002.68
2022-07-25T01:54:27.176Z,1002.64
2022-07-25T01:55:26.989Z,1002.62
2022-07-25T01:56:27.022Z,1002.64
2022-07-25T01:57:30.643Z,1002.62
2022-07-25T01:58:27.043Z,1002.59
2022-07-25T01:59:26.960Z,1002.57
2022-07-25T02:00:27.040Z,1002.57
2022-07-25T02:01:26.989Z,1002.61
2022-07-25T02:02:26.923Z,1002.56
2022-07-25T02:03:26.914Z,1002.53
2022-07-25T02:04:26.971Z,1002.55
2022-07-25T02:05:26.911Z,1002.57
2022-07-25T02:06:26.898Z,1002.54
2022-07-25T02:07:26.866Z,1002.54
2022-07-25T02:08:26.902Z,1002.56
2022-07-25T02:09:26.884Z,1002.52
2022-07-25T02:10:26.871Z,1002.52
2022-07-25T02:11:26.838Z,1002.52
2022-07-25T02:12:26.827Z,1002.50
2022-07-25T02:13:26.825Z,1002.50
2022-07-25T02:14:26.783Z,1002.47
2022-07-25T02:15:26.776Z,1002.46
2022-07-25T02:16:29.088Z,1002.48
2022-07-25T02:17:26.882Z,1002.49
2022-07-25T02:18:26.765Z,1002.45
2022-07-25T02:19:26.799Z,1002.46
2022-07-25T02:20:26.711Z,1002.44
2022-07-25T02:21:26.694Z,1002.45
2022-07-25T02:22:26.745Z,1002.41
2022-07-25T02:23:26.678Z,1002.42
2022-07-25T02:24:26.701Z,1002.42
2022-07-25T02:25:26.665Z,1002.41
2022-07-25T02:26:26.697Z,1002.45
2022-07-25T02:27:26.636Z,1002.40
2022-07-25T02:28:26.629Z,1002.43
2022-07-25T02:29:26.633Z,1002.38
2022-07-25T02:30:26.670Z,1002.39
2022-07-25T02:31:26.666Z,1002.39
2022-07-25T02:32:26.573Z,1002.37
2022-07-25T02:33:26.693Z,1002.34
2022-07-25T02:34:26.548Z,1002.34
2022-07-25T02:35:26.603Z,1002.35
2022-07-25T02:36:26.553Z,1002.31
2022-07-25T02:37:26.533Z,1002.33
2022-07-25T02:38:26.518Z,1002.31
2022-07-25T02:39:26.496Z,1002.34
2022-07-25T02:40:26.521Z,1002.31
2022-07-25T02:41:26.509Z,1002.32
2022-07-25T02:42:26.459Z,1002.31
2022-07-25T02:43:26.456Z,1002.33
2022-07-25T02:44:26.436Z,1002.34
2022-07-25T02:45:26.450Z,1002.33
2022-07-25T02:46:26.469Z,1002.30
2022-07-25T02:47:26.442Z,1002.28
2022-07-25T02:48:26.531Z,1002.28
2022-07-25T02:49:26.449Z,1002.27
2022-07-25T02:50:26.363Z,1002.28
2022-07-25T02:51:26.396Z,1002.25
2022-07-25T02:52:26.359Z,1002.29
2022-07-25T02:53:47.230Z,1002.29
2022-07-25T02:54:26.362Z,1002.28
2022-07-25T02:55:26.333Z,1002.26
2022-07-25T02:56:26.312Z,1002.27
2022-07-25T02:57:26.316Z,1002.21
2022-07-25T02:58:26.305Z,1002.25
2022-07-25T02:59:26.318Z,1002.23
2022-07-25T03:00:26.270Z,1002.14
2022-07-25T03:01:26.493Z,1002.19
2022-07-25T03:02:26.292Z,1002.18
2022-07-25T03:03:26.222Z,1002.17
2022-07-25T03:04:26.368Z,1002.14
2022-07-25T03:05:26.192Z,1002.17
2022-07-25T03:06:26.203Z,1002.14
2022-07-25T03:07:26.164Z,1002.13
2022-07-25T03:08:26.164Z,1002.14
2022-07-25T03:09:26.192Z,1002.14
2022-07-25T03:10:26.160Z,1002.10
2022-07-25T03:11:26.146Z,1002.09
2022-07-25T03:12:26.124Z,1002.07
2022-07-25T03:13:26.109Z,1002.06
2022-07-25T03:14:26.125Z,1002.05
2022-07-25T03:15:26.107Z,1002.04
2022-07-25T03:16:26.158Z,1002.06
2022-07-25T03:17:26.058Z,1002.01
2022-07-25T03:18:26.083Z,1002.01
2022-07-25T03:19:26.037Z,1002.00
2022-07-25T03:20:26.050Z,1001.99
2022-07-25T03:21:26.021Z,1002.00
2022-07-25T03:22:26.082Z,1001.93
2022-07-25T03:23:25.999Z,1001.93
2022-07-25T03:24:25.981Z,1001.96
2022-07-25T03:25:26.006Z,1001.92
2022-07-25T03:26:25.953Z,1001.90
2022-07-25T03:27:26.018Z,1001.93
2022-07-25T03:28:26.036Z,1001.92
2022-07-25T03:29:25.967Z,1001.89
2022-07-25T03:30:25.938Z,1001.89
2022-07-25T03:31:25.966Z,1001.92
2022-07-25T03:32:25.893Z,1001.93
2022-07-25T03:33:25.971Z,1001.90
2022-07-25T03:34:25.902Z,1001.89
2022-07-25T03:35:25.864Z,1001.88
2022-07-25T03:36:25.905Z,1001.88
2022-07-25T03:37:25.875Z,1001.87
2022-07-25T03:38:25.851Z,1001.85
2022-07-25T03:39:25.837Z,1001.84
2022-07-25T03:40:25.840Z,1001.86
2022-07-25T03:41:27.766Z,1001.86
2022-07-25T03:42:26.898Z,1001.87
2022-07-25T03:43:25.900Z,1001.87
2022-07-25T03:44:25.773Z,1001.86
2022-07-25T03:45:25.950Z,1001.82
2022-07-25T03:46:25.784Z,1001.81
2022-07-25T03:47:25.816Z,1001.79
2022-07-25T03:48:25.774Z,1001.81
2022-07-25T03:49:25.717Z,1001.83
2022-07-25T03:50:25.813Z,1001.80
2022-07-25T03:51:25.680Z,1001.78
2022-07-25T03:52:25.681Z,1001.74
2022-07-25T03:53:25.673Z,1001.74
2022-07-25T03:54:25.652Z,1001.72
2022-07-25T03:55:25.706Z,1001.68
2022-07-25T03:56:25.626Z,1001.65
2022-07-25T03:57:25.606Z,1001.67
2022-07-25T03:58:25.632Z,1001.66
2022-07-25T03:59:25.752Z,1001.60
2022-07-25T04:00:25.582Z,1001.61
2022-07-25T04:01:26.673Z,1001.61
2022-07-25T04:02:25.678Z,1001.59
2022-07-25T04:03:25.581Z,1001.56
2022-07-25T04:04:25.615Z,1001.58
2022-07-25T04:05:25.544Z,1001.55
2022-07-25T04:06:25.537Z,1001.55
2022-07-25T04:07:25.548Z,1001.56
2022-07-25T04:08:25.495Z,1001.50
2022-07-25T04:09:25.606Z,1001.49
2022-07-25T04:10:25.537Z,1001.49
2022-07-25T04:11:25.537Z,1001.51
2022-07-25T04:12:25.489Z,1001.48
2022-07-25T04:13:25.442Z,1001.46
2022-07-25T04:14:25.556Z,1001.47
2022-07-25T04:15:25.420Z,1001.44
2022-07-25T04:16:25.437Z,1001.47
2022-07-25T04:17:25.403Z,1001.44
2022-07-25T04:18:28.776Z,1001.46
2022-07-25T04:19:25.393Z,1001.42
2022-07-25T04:20:25.366Z,1001.46
2022-07-25T04:21:25.352Z,1001.43
2022-07-25T04:22:25.354Z,1001.41
2022-07-25T04:23:25.322Z,1001.40
2022-07-25T04:24:25.383Z,1001.36
2022-07-25T04:25:25.339Z,1001.34
2022-07-25T04:26:25.301Z,1001.37
2022-07-25T04:27:25.290Z,1001.37
2022-07-25T04:28:25.296Z,1001.37
2022-07-25T04:29:25.291Z,1001.34
2022-07-25T04:30:25.303Z,1001.36
2022-07-25T04:31:25.279Z,1001.35
2022-07-25T04:32:25.285Z,1001.33
2022-07-25T04:33:25.206Z,1001.33
2022-07-25T04:34:25.215Z,1001.32
2022-07-25T04:35:25.196Z,1001.36
2022-07-25T04:36:25.202Z,1001.32
2022-07-25T04:37:25.210Z,1001.36
2022-07-25T04:38:25.166Z,1001.31
2022-07-25T04:39:25.159Z,1001.33
2022-07-25T04:40:25.136Z,1001.34
2022-07-25T04:41:25.180Z,1001.33
2022-07-25T04:42:25.135Z,1001.30
2022-07-25T04:43:25.119Z,1001.26
2022-07-25T04:44:25.150Z,1001.29
2022-07-25T04:45:25.121Z,1001.27
2022-07-25T04:46:25.150Z,1001.26
2022-07-25T04:47:25.062Z,1001.21
2022-07-25T04:48:25.116Z,1001.26
2022-07-25T04:49:25.047Z,1001.22
2022-07-25T04:50:25.230Z,1001.24
2022-07-25T04:51:25.016Z,1001.24
2022-07-25T04:52:25.034Z,1001.15
2022-07-25T04:53:25.017Z,1001.15
2022-07-25T04:54:25.001Z,1001.16
2022-07-25T04:55:24.972Z,1001.15
2022-07-25T04:56:24.957Z,1001.14
2022-07-25T04:57:25.016Z,1001.12
2022-07-25T04:58:25.018Z,1001.09
2022-07-25T04:59:24.937Z,1001.12
2022-07-25T05:00:24.928Z,1001.07
2022-07-25T05:01:24.968Z,1001.10
2022-07-25T05:02:24.947Z,1001.12
2022-07-25T05:03:24.895Z,1001.04
2022-07-25T05:04:24.879Z,1001.03
2022-07-25T05:05:24.850Z,1000.99
2022-07-25T05:06:24.840Z,1000.97
2022-07-25T05:07:24.863Z,1001.00
2022-07-25T05:08:24.879Z,1000.99
2022-07-25T05:09:24.847Z,1001.00
2022-07-25T05:10:24.799Z,1000.99
2022-07-25T05:11:24.779Z,1000.97
2022-07-25T05:12:24.771Z,1001.00
2022-07-25T05:13:24.776Z,1000.97
2022-07-25T05:14:24.789Z,1001.01
2022-07-25T05:15:24.733Z,1000.97
2022-07-25T05:16:24.767Z,1000.99
2022-07-25T05:17:24.728Z,1001.02
2022-07-25T05:18:24.703Z,1000.97
2022-07-25T05:19:24.729Z,1000.97
2022-07-25T05:20:24.759Z,1000.97
2022-07-25T05:21:24.660Z,1000.94
2022-07-25T05:22:28.631Z,1000.98
2022-07-25T05:23:24.697Z,1000.89
2022-07-25T05:24:24.729Z,1000.90
2022-07-25T05:25:24.624Z,1000.88
2022-07-25T05:26:24.634Z,1000.89
2022-07-25T05:27:24.592Z,1000.86
2022-07-25T05:28:24.648Z,1000.85
2022-07-25T05:29:24.582Z,1000.86
2022-07-25T05:30:24.622Z,1000.88
2022-07-25T05:31:24.617Z,1000.81
2022-07-25T05:32:24.561Z,1000.83
2022-07-25T05:33:24.533Z,1000.81
2022-07-25T05:34:24.524Z,1000.80
2022-07-25T05:35:24.634Z,1000.80
2022-07-25T05:36:24.499Z,1000.77
2022-07-25T05:37:24.487Z,1000.79
2022-07-25T05:38:24.470Z,1000.77
2022-07-25T05:39:24.477Z,1000.73
2022-07-25T05:40:24.499Z,1000.71
2022-07-25T05:41:24.568Z,1000.70
2022-07-25T05:42:24.441Z,1000.67
2022-07-25T05:43:24.427Z,1000.67
2022-07-25T05:44:24.401Z,1000.67
2022-07-25T05:45:24.403Z,1000.68
2022-07-25T05:46:25.671Z,1000.67
2022-07-25T05:47:24.389Z,1000.62
2022-07-25T05:48:24.425Z,1000.65
2022-07-25T05:49:24.354Z,1000.65
2022-07-25T05:50:24.357Z,1000.61
2022-07-25T05:51:27.492Z,1000.67
2022-07-25T05:52:24.323Z,1000.62
2022-07-25T05:53:24.320Z,1000.63
2022-07-25T05:54:24.385Z,1000.65
2022-07-25T05:55:24.294Z,1000.59
2022-07-25T05:56:24.268Z,1000.56
2022-07-25T05:57:24.296Z,1000.58
2022-07-25T05:58:29.390Z,1000.59
2022-07-25T05:59:24.262Z,1000.58
2022-07-25T06:00:24.236Z,1000.57
2022-07-25T06:01:24.221Z,1000.62
2022-07-25T06:02:24.321Z,1000.64
2022-07-25T06:03:24.258Z,1000.60
2022-07-25T06:04:27.230Z,1000.65
2022-07-25T06:05:24.196Z,1000.65
2022-07-25T06:06:24.171Z,1000.68
2022-07-25T06:07:24.198Z,1000.66
2022-07-25T06:08:24.141Z,1000.67
2022-07-25T06:09:24.139Z,1000.67
2022-07-25T06:10:24.120Z,1000.67
2022-07-25T06:11:24.141Z,1000.68
2022-07-25T06:12:24.425Z,1000.66
2022-07-25T06:13:24.139Z,1000.66
2022-07-25T06:14:24.076Z,1000.66
2022-07-25T06:15:26.870Z,1000.67
2022-07-25T06:16:24.116Z,1000.70
2022-07-25T06:17:26.903Z,1000.68
2022-07-25T06:18:24.078Z,1000.68
2022-07-25T06:19:24.033Z,1000.64
2022-07-25T06:20:24.009Z,1000.61
2022-07-25T06:21:24.084Z,1000.61
2022-07-25T06:22:23.987Z,1000.59
2022-07-25T06:23:24.041Z,1000.59
2022-07-25T06:24:23.961Z,1000.54
2022-07-25T06:25:23.972Z,1000.51
2022-07-25T06:26:23.952Z,1000.51
2022-07-25T06:27:28.887Z,1000.52
2022-07-25T06:28:23.924Z,1000.51
2022-07-25T06:29:23.941Z,1000.50
2022-07-25T06:30:23.893Z,1000.48
2022-07-25T06:31:23.970Z,1000.48
2022-07-25T06:32:23.888Z,1000.49
2022-07-25T06:33:23.868Z,1000.43
2022-07-25T06:34:28.307Z,1000.45
2022-07-25T06:35:23.857Z,1000.43
2022-07-25T06:36:23.833Z,1000.45
2022-07-25T06:37:23.902Z,1000.44
2022-07-25T06:38:23.817Z,1000.43
2022-07-25T06:39:23.820Z,1000.41
2022-07-25T06:40:23.816Z,1000.36
2022-07-25T06:41:23.819Z,1000.39
2022-07-25T06:42:23.762Z,1000.35
2022-07-25T06:43:23.752Z,1000.33
2022-07-25T06:44:23.755Z,1000.30
2022-07-25T06:45:25.317Z,1000.27
2022-07-25T06:46:23.805Z,1000.29
2022-07-25T06:47:23.717Z,1000.27
2022-07-25T06:48:23.777Z,1000.27
2022-07-25T06:49:23.687Z,1000.24
2022-07-25T06:50:23.696Z,1000.27
2022-07-25T06:51:23.709Z,1000.27
2022-07-25T06:52:23.708Z,1000.30
2022-07-25T06:53:23.646Z,1000.30
2022-07-25T06:54:23.644Z,1000.31
2022-07-25T06:55:23.692Z,1000.33
2022-07-25T06:56:23.641Z,1000.30
2022-07-25T06:57:23.596Z,1000.28
2022-07-25T06:58:23.606Z,1000.30
2022-07-25T06:59:23.622Z,1000.34
2022-07-25T07:00:23.649Z,1000.33
2022-07-25T07:01:23.627Z,1000.28
2022-07-25T07:02:23.564Z,1000.25
2022-07-25T07:03:23.626Z,1000.28
2022-07-25T07:04:23.535Z,1000.26
2022-07-25T07:05:23.520Z,1000.29
2022-07-25T07:06:23.523Z,1000.25
2022-07-25T07:07:23.519Z,1000.26
2022-07-25T07:08:23.497Z,1000.19
2022-07-25T07:09:23.473Z,1000.20
2022-07-25T07:10:23.513Z,1000.18
2022-07-25T07:11:23.462Z,1000.22
2022-07-25T07:12:23.504Z,1000.23
2022-07-25T07:13:24.455Z,1000.24
2022-07-25T07:14:23.420Z,1000.28
2022-07-25T07:15:23.417Z,1000.25
2022-07-25T07:16:23.517Z,1000.28
2022-07-25T07:17:23.392Z,1000.29
2022-07-25T07:18:23.421Z,1000.27
2022-07-25T07:19:23.377Z,1000.25
2022-07-25T07:20:23.363Z,1000.22
2022-07-25T07:21:23.357Z,1000.23
2022-07-25T07:22:23.339Z,1000.22
2022-07-25T07:23:24.595Z,1000.21
2022-07-25T07:24:24.601Z,1000.23
2022-07-25T07:25:23.306Z,1000.26
2022-07-25T07:26:23.331Z,1000.29
2022-07-25T07:27:23.293Z,1000.24
2022-07-25T07:28:23.312Z,1000.27
2022-07-25T07:29:23.333Z,1000.26
2022-07-25T07:30:25.496Z,1000.25
2022-07-25T07:31:23.312Z,1000.20
2022-07-25T07:32:23.277Z,1000.19
2022-07-25T07:33:23.224Z,1000.17
2022-07-25T07:34:23.235Z,1000.20
2022-07-25T07:35:23.203Z,1000.25
2022-07-25T07:36:23.208Z,1000.28
2022-07-25T07:37:23.182Z,1000.24
2022-07-25T07:38:23.176Z,1000.25
2022-07-25T07:39:23.179Z,1000.22
2022-07-25T07:40:23.154Z,1000.23
2022-07-25T07:41:23.152Z,1000.17
2022-07-25T07:42:23.128Z,1000.14
2022-07-25T07:43:29.060Z,1000.21
2022-07-25T07:44:23.142Z,1000.16
2022-07-25T07:45:23.111Z,1000.07
2022-07-25T07:46:23.103Z,1000.09
2022-07-25T07:47:23.080Z,1000.11
2022-07-25T07:48:23.066Z,1000.16
2022-07-25T07:49:23.127Z,1000.18
2022-07-25T07:50:23.045Z,1000.17
2022-07-25T07:51:23.110Z,1000.15
2022-07-25T07:52:23.024Z,1000.15
2022-07-25T07:53:23.013Z,1000.13
2022-07-25T07:54:23.041Z,1000.07
2022-07-25T07:55:23.039Z,1000.08
2022-07-25T07:56:22.976Z,1000.07
2022-07-25T07:57:23.036Z,1000.08
2022-07-25T07:58:22.957Z,1000.12
2022-07-25T07:59:22.953Z,1000.11
2022-07-25T08:00:23.013Z,1000.07
2022-07-25T08:01:22.970Z,1000.05
2022-07-25T08:02:22.972Z,1000.09
2022-07-25T08:03:23.000Z,1000.10
2022-07-25T08:04:22.892Z,1000.06
2022-07-25T08:05:22.950Z,1000.05
2022-07-25T08:06:22.868Z,999.98
2022-07-25T08:07:22.932Z,999.96
2022-07-25T08:08:24.795Z,999.98
2022-07-25T08:09:22.845Z,999.96
2022-07-25T08:10:22.863Z,999.97
2022-07-25T08:11:22.834Z,999.95
2022-07-25T08:12:22.801Z,999.89
2022-07-25T08:13:22.841Z,999.92
2022-07-25T08:14:22.777Z,999.93
2022-07-25T08:15:22.776Z,1000.01
2022-07-25T08:16:22.887Z,999.97
2022-07-25T08:17:28.312Z,999.94
2022-07-25T08:18:22.793Z,999.92
2022-07-25T08:19:22.745Z,999.98
2022-07-25T08:20:37.582Z,999.99
2022-07-25T08:21:22.747Z,1000.02
2022-07-25T08:22:22.695Z,999.99
2022-07-25T08:23:22.728Z,1000.00
2022-07-25T08:24:22.663Z,999.96
2022-07-25T08:25:22.662Z,999.92
2022-07-25T08:26:22.668Z,999.97
2022-07-25T08:27:22.664Z,999.87
2022-07-25T08:28:22.622Z,999.90
2022-07-25T08:29:27.783Z,999.87
2022-07-25T08:30:22.602Z,999.88
2022-07-25T08:31:22.639Z,999.87
2022-07-25T08:32:22.624Z,999.87
2022-07-25T08:33:22.584Z,999.91
2022-07-25T08:34:22.555Z,999.90
2022-07-25T08:35:22.554Z,999.90
2022-07-25T08:36:22.531Z,999.90
2022-07-25T08:37:22.524Z,999.90
2022-07-25T08:38:22.535Z,999.91
2022-07-25T08:39:22.510Z,999.92
2022-07-25T08:40:22.487Z,999.97
2022-07-25T08:41:24.779Z,999.93
2022-07-25T08:42:22.468Z,999.91
2022-07-25T08:43:22.488Z,999.96
2022-07-25T08:44:22.455Z,999.97
2022-07-25T08:45:22.443Z,999.91
2022-07-25T08:46:22.477Z,999.95
2022-07-25T08:47:22.418Z,999.96
2022-07-25T08:48:22.410Z,999.99
2022-07-25T08:49:22.417Z,1000.00
2022-07-25T08:50:22.389Z,1000.00
2022-07-25T08:51:22.402Z,1000.00
2022-07-25T08:52:22.373Z,999.99
2022-07-25T08:53:37.659Z,999.96
2022-07-25T08:54:22.856Z,1000.01
2022-07-25T08:55:22.333Z,999.96
2022-07-25T08:56:22.327Z,999.93
2022-07-25T08:57:22.330Z,999.94
2022-07-25T08:58:22.310Z,999.95
2022-07-25T08:59:22.330Z,999.94
2022-07-25T09:00:22.281Z,999.95
2022-07-25T09:01:22.289Z,999.97
2022-07-25T09:02:22.405Z,999.91
2022-07-25T09:03:22.321Z,1000.02
2022-07-25T09:04:22.249Z,1000.00
2022-07-25T09:05:22.289Z,1000.02
2022-07-25T09:06:22.244Z,999.99
2022-07-25T09:07:22.221Z,999.99
2022-07-25T09:08:22.199Z,999.91
2022-07-25T09:09:22.193Z,999.93
2022-07-25T09:10:22.206Z,999.85
2022-07-25T09:11:22.188Z,999.87
2022-07-25T09:12:25.884Z,999.87
2022-07-25T09:13:22.157Z,999.92
2022-07-25T09:14:22.137Z,999.93
2022-07-25T09:15:22.132Z,999.96
2022-07-25T09:16:22.182Z,999.97
2022-07-25T09:17:23.502Z,999.94
2022-07-25T09:18:22.087Z,999.84
2022-07-25T09:19:22.088Z,999.84
2022-07-25T09:20:22.069Z,999.77
2022-07-25T09:21:22.181Z,999.80
2022-07-25T09:22:22.064Z,999.76
2022-07-25T09:23:22.036Z,999.80
2022-07-25T09:24:22.051Z,999.79
2022-07-25T09:25:22.019Z,999.80
2022-07-25T09:26:22.007Z,999.75
2022-07-25T09:27:22.031Z,999.74
2022-07-25T09:28:21.984Z,999.78
2022-07-25T09:29:22.009Z,999.75
2022-07-25T09:30:21.966Z,999.76
2022-07-25T09:31:21.977Z,999.75
2022-07-25T09:32:21.962Z,999.78
2022-07-25T09:33:21.925Z,999.75
2022-07-25T09:34:25.514Z,999.72
2022-07-25T09:35:21.911Z,999.65
2022-07-25T09:36:21.887Z,999.61
2022-07-25T09:37:21.919Z,999.61
2022-07-25T09:38:21.866Z,999.61
2022-07-25T09:39:21.864Z,999.65
2022-07-25T09:40:21.845Z,999.70
2022-07-25T09:41:21.841Z,999.66
2022-07-25T09:42:21.839Z,999.63
2022-07-25T09:43:21.807Z,999.65
2022-07-25T09:44:21.799Z,999.67
2022-07-25T09:45:21.794Z,999.67
2022-07-25T09:46:21.849Z,999.72
2022-07-25T09:47:21.815Z,999.68
2022-07-25T09:48:21.759Z,999.70
2022-07-25T09:49:21.799Z,999.66
2022-07-25T09:50:21.736Z,999.67
2022-07-25T09:51:21.725Z,999.66
2022-07-25T09:52:21.744Z,999.70
2022-07-25T09:53:21.697Z,999.71
2022-07-25T09:54:21.698Z,999.65
2022-07-25T09:55:21.703Z,999.65
2022-07-25T09:56:21.667Z,999.68
2022-07-25T09:57:21.697Z,999.66
2022-07-25T09:58:21.676Z,999.75
2022-07-25T09:59:21.645Z,999.72
2022-07-25T10:00:21.630Z,999.69
2022-07-25T10:01:21.705Z,999.76
2022-07-25T10:02:21.657Z,999.73
2022-07-25T10:03:21.610Z,999.73
2022-07-25T10:04:21.604Z,999.74
2022-07-25T10:05:21.567Z,999.71
2022-07-25T10:06:21.558Z,999.71
2022-07-25T10:07:21.639Z,999.68
2022-07-25T10:08:21.560Z,999.72
2022-07-25T10:09:21.550Z,999.76
2022-07-25T10:10:21.548Z,999.72
2022-07-25T10:11:21.505Z,999.72
2022-07-25T10:12:21.497Z,999.73
2022-07-25T10:13:21.541Z,999.71
2022-07-25T10:14:21.480Z,999.67
2022-07-25T10:15:21.465Z,999.66
2022-07-25T10:16:21.554Z,999.65
2022-07-25T10:17:21.612Z,999.63
2022-07-25T10:18:21.485Z,999.63
2022-07-25T10:19:21.460Z,999.63
2022-07-25T10:20:21.417Z,999.68
2022-07-25T10:21:29.121Z,999.71
2022-07-25T10:22:39.783Z,999.68
2022-07-25T10:23:21.395Z,999.71
2022-07-25T10:24:21.408Z,999.69
2022-07-25T10:25:21.355Z,999.71
2022-07-25T10:26:21.409Z,999.75
2022-07-25T10:27:21.335Z,999.73
2022-07-25T10:28:21.336Z,999.72
2022-07-25T10:29:21.334Z,999.71
2022-07-25T10:30:21.298Z,999.75
2022-07-25T10:31:21.350Z,999.75
2022-07-25T10:32:21.288Z,999.73
2022-07-25T10:33:21.303Z,999.70
2022-07-25T10:34:21.283Z,999.67
2022-07-25T10:35:21.241Z,999.66
2022-07-25T10:36:21.245Z,999.67
2022-07-25T10:37:21.261Z,999.65
2022-07-25T10:38:21.263Z,999.67
2022-07-25T10:39:21.206Z,999.72
2022-07-25T10:40:21.239Z,999.68
2022-07-25T10:41:21.192Z,999.69
2022-07-25T10:42:21.173Z,999.77
2022-07-25T10:43:21.223Z,999.75
2022-07-25T10:44:21.182Z,999.76
2022-07-25T10:45:21.160Z,999.71
2022-07-25T10:46:21.302Z,999.72
2022-07-25T10:47:21.120Z,999.75
2022-07-25T10:48:21.169Z,999.74
2022-07-25T10:49:29.090Z,999.75
2022-07-25T10:50:34.655Z,999.76
2022-07-25T10:51:21.092Z,999.77
2022-07-25T10:52:21.061Z,999.80
2022-07-25T10:53:21.056Z,999.81
2022-07-25T10:54:21.065Z,999.82
2022-07-25T10:55:21.033Z,999.81
2022-07-25T10:56:21.040Z,999.78
2022-07-25T10:57:21.050Z,999.84
2022-07-25T10:58:21.004Z,999.85
2022-07-25T10:59:20.987Z,999.88
2022-07-25T11:00:20.993Z,999.88
2022-07-25T11:01:21.105Z,999.95
2022-07-25T11:02:20.990Z,999.93
2022-07-25T11:03:20.957Z,999.90
2022-07-25T11:04:20.932Z,999.92
2022-07-25T11:05:20.932Z,999.96
2022-07-25T11:06:20.941Z,999.95
2022-07-25T11:07:20.917Z,999.96
2022-07-25T11:08:22.410Z,1000.00
2022-07-25T11:09:26.503Z,1000.02
2022-07-25T11:10:20.900Z,999.97
2022-07-25T11:11:20.915Z,999.92
2022-07-25T11:12:20.848Z,999.88
2022-07-25T11:13:20.928Z,999.88
2022-07-25T11:14:20.837Z,999.89
2022-07-25T11:15:20.844Z,999.86
2022-07-25T11:16:20.868Z,999.85
2022-07-25T11:17:20.821Z,999.83
2022-07-25T11:18:20.973Z,999.79
2022-07-25T11:19:20.777Z,999.84
2022-07-25T11:20:20.768Z,999.87
2022-07-25T11:21:20.761Z,999.84
2022-07-25T11:22:20.771Z,999.84
2022-07-25T11:23:20.730Z,999.81
2022-07-25T11:24:20.721Z,999.79
2022-07-25T11:25:20.744Z,999.74
2022-07-25T11:26:20.696Z,999.79
2022-07-25T11:27:20.722Z,999.83
2022-07-25T11:28:20.689Z,999.85
2022-07-25T11:29:20.674Z,999.86
2022-07-25T11:30:20.655Z,999.86
2022-07-25T11:31:20.878Z,999.87
2022-07-25T11:32:20.747Z,999.81
2022-07-25T11:33:20.659Z,999.87
2022-07-25T11:34:20.623Z,999.85
2022-07-25T11:35:20.598Z,999.82
2022-07-25T11:36:20.588Z,999.88
2022-07-25T11:37:20.606Z,999.80
2022-07-25T11:38:20.615Z,999.87
2022-07-25T11:39:20.567Z,999.81
2022-07-25T11:40:20.583Z,999.85
2022-07-25T11:41:20.539Z,999.82
2022-07-25T11:42:20.538Z,999.80
2022-07-25T11:43:20.562Z,999.85
2022-07-25T11:44:20.513Z,999.84
2022-07-25T11:45:20.532Z,999.87
2022-07-25T11:46:20.579Z,999.84
2022-07-25T11:47:20.490Z,999.85
2022-07-25T11:48:20.512Z,999.88
2022-07-25T11:49:20.489Z,999.83
2022-07-25T11:50:20.477Z,999.80
2022-07-25T11:51:20.435Z,999.82
2022-07-25T11:52:20.436Z,999.85
2022-07-25T11:53:20.434Z,999.83
2022-07-25T11:54:20.422Z,999.81
2022-07-25T11:55:20.393Z,999.85
2022-07-25T11:56:41.362Z,999.81
2022-07-25T11:57:20.383Z,999.85
2022-07-25T11:58:20.370Z,999.86
2022-07-25T11:59:20.372Z,999.93
2022-07-25T12:00:20.338Z,999.92
2022-07-25T12:01:20.410Z,999.93
2022-07-25T12:02:20.456Z,999.99
2022-07-25T12:03:20.968Z,999.99
2022-07-25T12:04:20.329Z,1000.00
2022-07-25T12:05:20.303Z,1000.05
2022-07-25T12:06:20.277Z,999.96
2022-07-25T12:07:20.265Z,1000.00
2022-07-25T12:08:20.273Z,1000.09
2022-07-25T12:09:20.245Z,999.97
2022-07-25T12:10:20.262Z,1000.02
2022-07-25T12:11:20.245Z,1000.03
2022-07-25T12:12:20.215Z,1000.05